Time;durP1;ratioP1;P1;durP2;ratioP2;P2;SDS_P1;SDS_P2;PMS_P1;PMS_P2;Temp;Humidity;BMP_temperature;BMP_pressure;BME280_temperature;BME280_humidity;BME280_pressure;Samples;Min_cycle;Max_cycle;Signal;HPM_P1;HPM_P2
2021/04/11 00:01:20;;;;;;;5.78;3.00;;;19.80;37.40;;;;;;5076921;28;20133;-65
2021/04/11 00:03:45;;;;;;;5.70;2.78;;;19.80;37.50;;;;;;5076264;28;20020;-65
2021/04/11 00:06:11;;;;;;;5.18;2.67;;;19.80;37.50;;;;;;5076353;28;20051;-65
2021/04/11 00:08:36;;;;;;;5.80;2.80;;;19.80;37.50;;;;;;5076413;28;20035;-65
2021/04/11 00:11:03;;;;;;;5.20;2.47;;;19.80;37.40;;;;;;5076031;28;20085;-65
2021/04/11 00:13:35;;;;;;;6.65;3.58;;;19.80;37.50;;;;;;5076364;28;20445;-65
2021/04/11 00:16:01;;;;;;;6.10;3.08;;;19.80;37.70;;;;;;5076188;28;20028;-65
2021/04/11 00:18:27;;;;;;;5.95;3.20;;;19.80;37.50;;;;;;5075036;28;20021;-65
2021/04/11 00:20:53;;;;;;;6.95;3.20;;;19.80;37.60;;;;;;5075788;28;20098;-65
2021/04/11 00:23:21;;;;;;;5.97;2.88;;;19.80;37.60;;;;;;5076137;28;20029;-65
2021/04/11 00:25:47;;;;;;;6.10;3.30;;;19.80;37.50;;;;;;5076196;28;20017;-65
2021/04/11 00:28:15;;;;;;;7.13;3.50;;;19.80;37.50;;;;;;5076141;28;20025;-65
2021/04/11 00:30:41;;;;;;;5.30;2.72;;;19.80;37.50;;;;;;5075937;28;20090;-65
2021/04/11 00:33:08;;;;;;;6.80;3.15;;;19.80;37.50;;;;;;5075747;28;20381;-64
2021/04/11 00:35:34;;;;;;;6.25;3.25;;;19.80;37.60;;;;;;5075533;28;20052;-64
2021/04/11 00:38:00;;;;;;;7.28;3.17;;;19.80;37.60;;;;;;5075599;28;20522;-65
2021/04/11 00:40:30;;;;;;;5.20;3.05;;;19.80;37.60;;;;;;5075851;28;20029;-65
2021/04/11 00:43:01;;;;;;;6.82;3.50;;;19.80;37.60;;;;;;5075693;28;20518;-65
2021/04/11 00:45:48;;;;;;;5.97;3.13;;;19.80;37.60;;;;;;5075934;28;20025;-65
2021/04/11 00:48:16;;;;;;;6.78;3.72;;;19.80;37.60;;;;;;5075726;28;20024;-65
2021/04/11 00:51:00;;;;;;;5.70;3.10;;;19.80;37.60;;;;;;5075732;28;20468;-64
2021/04/11 00:53:26;;;;;;;6.18;3.20;;;19.80;37.60;;;;;;5075500;28;20492;-65
2021/04/11 00:55:52;;;;;;;6.88;3.65;;;19.80;37.70;;;;;;5075439;28;20048;-64
2021/04/11 00:58:21;;;;;;;6.03;3.70;;;19.80;37.60;;;;;;5075191;28;20539;-64
2021/04/11 01:00:47;;;;;;;7.05;3.70;;;19.80;37.60;;;;;;5075553;28;20028;-65
2021/04/11 01:03:24;;;;;;;6.88;3.70;;;19.80;37.60;;;;;;5075610;28;20036;-66
2021/04/11 01:05:50;;;;;;;7.07;3.58;;;19.70;37.60;;;;;;5075361;28;20025;-64
2021/04/11 01:08:23;;;;;;;6.60;3.70;;;19.70;37.70;;;;;;5075111;28;20380;-64
2021/04/11 01:10:56;;;;;;;6.53;3.38;;;19.70;37.70;;;;;;5075455;28;20025;-65
2021/04/11 01:13:22;;;;;;;6.07;3.17;;;19.80;37.70;;;;;;5075121;28;20561;-65
2021/04/11 01:15:48;;;;;;;5.68;3.17;;;19.80;37.70;;;;;;5073605;28;20522;-65
2021/04/11 01:18:14;;;;;;;6.53;3.30;;;19.70;37.60;;;;;;5075206;28;20046;-65
2021/04/11 01:20:39;;;;;;;6.90;3.60;;;19.70;37.70;;;;;;5074831;28;20472;-64
2021/04/11 01:23:17;;;;;;;6.65;3.60;;;19.80;37.60;;;;;;5075244;28;20025;-66
2021/04/11 01:25:44;;;;;;;6.55;3.40;;;19.80;37.70;;;;;;5075321;28;20036;-65
2021/04/11 01:28:16;;;;;;;5.55;3.15;;;19.80;37.80;;;;;;5074951;28;20020;-64
2021/04/11 01:30:43;;;;;;;7.63;3.83;;;19.80;37.70;;;;;;5075140;28;20111;-64
2021/04/11 01:33:13;;;;;;;6.78;3.80;;;19.70;37.70;;;;;;5075051;28;20024;-65
2021/04/11 01:35:39;;;;;;;7.45;3.60;;;19.80;37.70;;;;;;5074449;28;20039;-64
2021/04/11 01:38:06;;;;;;;6.50;3.60;;;19.80;37.80;;;;;;5074702;28;20055;-65
2021/04/11 01:40:38;;;;;;;6.00;3.45;;;19.80;37.70;;;;;;5074955;28;20074;-66
2021/04/11 01:43:06;;;;;;;9.38;4.22;;;19.70;37.70;;;;;;5074519;28;20025;-65
2021/04/11 01:45:35;;;;;;;7.35;4.18;;;19.80;37.80;;;;;;5072543;28;20056;-65
2021/04/11 01:48:00;;;;;;;7.57;4.18;;;19.70;37.80;;;;;;5074453;28;20047;-64
2021/04/11 01:50:26;;;;;;;7.60;4.25;;;19.70;37.80;;;;;;5074684;28;20024;-65
2021/04/11 01:52:53;;;;;;;8.38;4.53;;;19.70;37.80;;;;;;5074584;28;20029;-66
2021/04/11 01:55:20;;;;;;;6.63;3.88;;;19.70;37.80;;;;;;5074159;28;20024;-65
2021/04/11 01:57:52;;;;;;;8.65;4.72;;;19.70;37.80;;;;;;5074516;28;20039;-65
2021/04/11 02:00:34;;;;;;;7.53;4.47;;;19.70;37.80;;;;;;5074349;28;20016;-65
2021/04/11 02:03:20;;;;;;;7.57;4.78;;;19.70;37.80;;;;;;5074266;28;20039;-65
2021/04/11 02:05:47;;;;;;;8.07;4.38;;;19.70;37.80;;;;;;5072508;28;20064;-65
2021/04/11 02:08:20;;;;;;;8.50;4.20;;;19.70;37.80;;;;;;5074579;28;20032;-65
2021/04/11 02:10:51;;;;;;;6.93;4.10;;;19.70;37.90;;;;;;5074346;28;20028;-65
2021/04/11 02:13:21;;;;;;;7.70;4.38;;;19.70;37.80;;;;;;5074266;28;20029;-65
2021/04/11 02:15:50;;;;;;;8.07;4.40;;;19.70;37.80;;;;;;5073897;28;20040;-65
2021/04/11 02:18:16;;;;;;;8.18;4.53;;;19.70;37.80;;;;;;5074162;28;20020;-66
2021/04/11 02:20:43;;;;;;;7.65;4.80;;;19.70;37.90;;;;;;5073540;28;20483;-64
2021/04/11 02:23:11;;;;;;;8.90;4.85;;;19.80;37.80;;;;;;5073677;28;20392;-65
2021/04/11 02:25:43;;;;;;;7.90;4.55;;;19.70;37.90;;;;;;5073941;28;20503;-64
2021/04/11 02:28:11;;;;;;;8.05;5.05;;;19.70;37.90;;;;;;5074534;28;20105;-65
2021/04/11 02:30:44;;;;;;;7.93;4.40;;;19.80;37.90;;;;;;5073660;28;20380;-65
2021/04/11 02:33:10;;;;;;;9.07;4.88;;;19.70;37.90;;;;;;5074235;28;20032;-64
2021/04/11 02:35:36;;;;;;;7.95;5.03;;;19.80;37.90;;;;;;5073795;28;20388;-65
2021/04/11 02:38:04;;;;;;;8.57;4.78;;;19.70;38.00;;;;;;5072442;28;20025;-64
2021/04/11 02:40:37;;;;;;;7.78;4.78;;;19.70;38.00;;;;;;5073552;28;20032;-65
2021/04/11 02:43:06;;;;;;;7.53;4.78;;;19.70;38.00;;;;;;5073877;28;20042;-65
2021/04/11 02:45:36;;;;;;;7.90;4.72;;;19.70;38.10;;;;;;5073558;28;20071;-65
2021/04/11 02:48:02;;;;;;;7.68;5.05;;;19.70;38.00;;;;;;5073362;28;20020;-64
2021/04/11 02:50:33;;;;;;;8.50;5.38;;;19.70;38.10;;;;;;5073700;28;20025;-64
2021/04/11 02:53:03;;;;;;;8.00;4.32;;;19.70;38.10;;;;;;5073816;28;20036;-65
2021/04/11 02:55:31;;;;;;;7.97;4.85;;;19.70;38.20;;;;;;5077389;28;20056;-65
2021/04/11 02:57:57;;;;;;;8.40;4.50;;;19.70;38.10;;;;;;5076842;28;20024;-65
2021/04/11 03:00:26;;;;;;;7.30;4.35;;;19.70;38.10;;;;;;5072441;28;20024;-65
2021/04/11 03:02:51;;;;;;;8.07;4.68;;;19.70;38.20;;;;;;5073769;28;20020;-64
2021/04/11 03:05:22;;;;;;;7.95;4.47;;;19.70;38.10;;;;;;5073252;28;20021;-65
2021/04/11 03:07:51;;;;;;;8.50;4.72;;;19.70;38.10;;;;;;5073291;28;20024;-65
2021/04/11 03:10:35;;;;;;;7.43;4.68;;;19.70;38.10;;;;;;5073413;28;20025;-65
2021/04/11 03:13:02;;;;;;;7.73;4.77;;;19.70;38.10;;;;;;5071946;28;20172;-65
2021/04/11 03:15:28;;;;;;;7.88;4.50;;;19.70;38.20;;;;;;5073197;28;20064;-65
2021/04/11 03:17:55;;;;;;;8.63;5.00;;;19.70;38.30;;;;;;5072938;28;20021;-64
2021/04/11 03:20:34;;;;;;;7.43;4.40;;;19.70;38.20;;;;;;5073426;28;20066;-65
2021/04/11 03:23:02;;;;;;;8.40;5.28;;;19.70;38.30;;;;;;5073135;28;20119;-65
2021/04/11 03:25:30;;;;;;;7.78;4.97;;;19.70;38.20;;;;;;5073298;28;20074;-65
2021/04/11 03:28:17;;;;;;;9.38;4.90;;;19.60;38.30;;;;;;5073430;28;20029;-65
2021/04/11 03:31:10;;;;;;;8.88;4.72;;;19.60;38.20;;;;;;5073039;28;20036;-66
2021/04/11 03:33:39;;;;;;;8.57;4.95;;;19.60;38.30;;;;;;5073036;28;20023;-65
2021/04/11 03:36:07;;;;;;;8.00;4.63;;;19.60;38.30;;;;;;5072763;28;20049;-64
2021/04/11 03:38:34;;;;;;;7.90;4.70;;;19.60;38.40;;;;;;5072927;28;20031;-66
2021/04/11 03:41:01;;;;;;;8.65;4.95;;;19.60;38.30;;;;;;5073341;28;20033;-66
2021/04/11 03:43:43;;;;;;;8.10;4.90;;;19.60;38.30;;;;;;5073114;28;20020;-66
2021/04/11 03:46:18;;;;;;;8.07;5.07;;;19.60;38.30;;;;;;5072933;28;20024;-65
2021/04/11 03:49:03;;;;;;;7.55;4.38;;;19.60;38.40;;;;;;5072930;28;20033;-66
2021/04/11 03:51:31;;;;;;;7.65;4.32;;;19.60;38.40;;;;;;5072943;28;20032;-66
2021/04/11 03:54:15;;;;;;;7.32;4.60;;;19.60;38.40;;;;;;5073090;28;20115;-66
2021/04/11 03:56:45;;;;;;;7.60;4.63;;;19.60;38.50;;;;;;5072958;28;20033;-65
2021/04/11 03:59:16;;;;;;;8.02;4.60;;;19.60;38.50;;;;;;5072746;28;20020;-65
2021/04/11 04:01:48;;;;;;;7.60;4.30;;;19.50;38.40;;;;;;5072978;28;20067;-65
2021/04/11 04:04:19;;;;;;;8.30;5.10;;;19.50;38.50;;;;;;5073168;28;20021;-65
2021/04/11 04:07:00;;;;;;;7.10;4.38;;;19.50;38.50;;;;;;5071626;28;20028;-65
2021/04/11 04:09:25;;;;;;;7.45;4.25;;;19.50;38.50;;;;;;5074181;28;20448;-65
2021/04/11 04:12:09;;;;;;;6.93;4.13;;;19.50;38.40;;;;;;5076333;28;20066;-64
2021/04/11 04:15:03;;;;;;;7.80;4.47;;;19.50;38.40;;;;;;5076189;28;20119;-65
2021/04/11 04:17:42;;;;;;;7.00;4.22;;;19.60;38.30;;;;;;5076453;28;20077;-65
2021/04/11 04:20:29;;;;;;;7.15;3.75;;;19.60;38.30;;;;;;5080820;28;20024;-65
2021/04/11 04:23:32;;;;;;;8.07;4.22;;;19.60;38.40;;;;;;5085508;28;20123;-65
2021/04/11 04:26:27;;;;;;;6.90;3.78;;;19.60;38.20;;;;;;5083355;28;20479;-65
2021/04/11 04:29:25;;;;;;;7.93;4.20;;;19.70;38.20;;;;;;5076773;28;20497;-65
2021/04/11 04:32:04;;;;;;;6.95;4.28;;;19.70;38.20;;;;;;5062000;28;20465;-64
2021/04/11 04:34:50;;;;;;;7.20;4.40;;;19.60;38.20;;;;;;5075973;28;20123;-65
2021/04/11 04:37:48;;;;;;;7.10;3.97;;;19.70;38.20;;;;;;5075959;28;20024;-64
2021/04/11 04:40:41;;;;;;;7.15;4.13;;;19.70;38.10;;;;;;5075806;28;20035;-64
2021/04/11 04:43:51;;;;;;;7.20;4.20;;;19.70;38.10;;;;;;5076009;28;20027;-64
2021/04/11 04:46:24;;;;;;;6.15;3.80;;;19.70;38.10;;;;;;5075578;28;20047;-64
2021/04/11 04:49:09;;;;;;;6.88;3.75;;;19.70;38.10;;;;;;5075564;28;20021;-64
2021/04/11 04:51:45;;;;;;;7.43;4.28;;;19.80;38.10;;;;;;5076246;28;20020;-64
2021/04/11 04:54:22;;;;;;;6.75;3.85;;;19.80;38.10;;;;;;5076269;28;20024;-64
2021/04/11 04:57:01;;;;;;;7.35;4.00;;;19.80;38.10;;;;;;5076326;28;20029;-64
2021/04/11 04:59:33;;;;;;;7.00;4.00;;;19.80;38.10;;;;;;5076258;28;20020;-65
2021/04/11 05:02:06;;;;;;;7.10;4.20;;;19.80;38.00;;;;;;5083121;28;20028;-66
2021/04/11 05:04:33;;;;;;;6.43;3.53;;;19.80;38.10;;;;;;5086183;28;20025;-66
2021/04/11 05:07:07;;;;;;;7.45;4.03;;;19.80;38.10;;;;;;5076486;28;20020;-66
2021/04/11 05:09:48;;;;;;;7.07;3.70;;;19.80;38.10;;;;;;5075622;28;20107;-66
2021/04/11 05:12:38;;;;;;;6.53;3.90;;;19.80;38.10;;;;;;5075110;28;20031;-65
2021/04/11 05:15:18;;;;;;;6.88;3.45;;;19.90;38.10;;;;;;5075430;28;20039;-65
2021/04/11 05:17:51;;;;;;;6.03;3.42;;;19.80;38.10;;;;;;5075776;28;20021;-65
2021/04/11 05:20:23;;;;;;;6.95;3.65;;;19.80;38.00;;;;;;5074901;28;20028;-65
2021/04/11 05:22:53;;;;;;;6.65;3.60;;;19.80;38.10;;;;;;5074797;28;20074;-65
2021/04/11 05:25:28;;;;;;;6.22;3.47;;;19.90;38.10;;;;;;5075045;28;20024;-66
2021/04/11 05:28:09;;;;;;;7.07;3.70;;;19.90;38.10;;;;;;5074750;28;20028;-66
2021/04/11 05:30:46;;;;;;;5.65;3.58;;;19.80;38.10;;;;;;5075355;28;20104;-66
2021/04/11 05:33:17;;;;;;;6.80;3.67;;;19.80;38.10;;;;;;5074925;28;20472;-65
2021/04/11 05:35:44;;;;;;;6.60;3.65;;;19.80;38.10;;;;;;5074893;28;20032;-65
2021/04/11 05:38:28;;;;;;;7.22;3.85;;;19.80;38.00;;;;;;5074894;28;20392;-65
2021/04/11 05:41:08;;;;;;;7.07;3.80;;;19.80;38.10;;;;;;5074652;28;20032;-65
2021/04/11 05:43:56;;;;;;;5.45;2.95;;;19.90;38.10;;;;;;5074592;28;20024;-65
2021/04/11 05:46:36;;;;;;;5.95;3.38;;;19.80;38.00;;;;;;5074576;28;20461;-65
2021/04/11 05:49:09;;;;;;;5.95;3.30;;;19.90;38.00;;;;;;5074652;28;20087;-65
2021/04/11 05:51:41;;;;;;;5.50;3.03;;;19.80;38.00;;;;;;5074813;28;20357;-65
2021/04/11 05:54:20;;;;;;;6.00;3.58;;;19.80;38.00;;;;;;5074169;28;20270;-65
2021/04/11 05:56:53;;;;;;;5.60;3.08;;;19.90;38.00;;;;;;5073275;28;20032;-65
2021/04/11 05:59:30;;;;;;;5.78;3.22;;;19.90;38.10;;;;;;5074910;28;20029;-65
2021/04/11 06:01:58;;;;;;;6.13;3.28;;;19.90;38.00;;;;;;5074042;28;20472;-65
2021/04/11 06:04:31;;;;;;;5.78;3.10;;;19.90;38.00;;;;;;5074323;28;20035;-65
2021/04/11 06:07:02;;;;;;;5.82;3.20;;;19.90;38.00;;;;;;5074553;28;20049;-64
2021/04/11 06:09:40;;;;;;;5.70;2.83;;;19.90;38.00;;;;;;5074071;28;20082;-64
2021/04/11 06:12:16;;;;;;;6.30;3.30;;;19.90;38.00;;;;;;5074110;28;20032;-65
2021/04/11 06:15:00;;;;;;;5.88;3.13;;;19.90;38.00;;;;;;5074050;28;20146;-64
2021/04/11 06:17:26;;;;;;;6.03;3.03;;;19.90;38.00;;;;;;5073950;28;20028;-65
2021/04/11 06:19:52;;;;;;;5.80;3.22;;;19.90;38.00;;;;;;5073791;28;20016;-66
2021/04/11 06:22:59;;;;;;;5.30;2.75;;;19.90;38.00;;;;;;5073543;28;20044;-65
2021/04/11 06:25:58;;;;;;;5.90;3.20;;;19.90;37.90;;;;;;5074066;28;20052;-64
2021/04/11 06:28:48;;;;;;;5.28;2.72;;;19.90;38.00;;;;;;5074018;28;20111;-66
2021/04/11 06:31:20;;;;;;;7.00;3.53;;;19.90;38.00;;;;;;5073646;28;20020;-65
2021/04/11 06:33:50;;;;;;;5.32;3.08;;;19.90;38.00;;;;;;5073588;28;20028;-65
2021/04/11 06:36:20;;;;;;;4.75;2.55;;;19.90;38.00;;;;;;5073709;28;20086;-65
2021/04/11 06:38:54;;;;;;;5.65;3.20;;;19.90;37.90;;;;;;5074344;28;20176;-65
2021/04/11 06:41:19;;;;;;;5.17;2.60;;;19.90;37.90;;;;;;5073844;28;20063;-65
2021/04/11 06:44:00;;;;;;;5.85;2.92;;;19.90;37.90;;;;;;5073474;28;20299;-65
2021/04/11 06:46:58;;;;;;;5.90;2.72;;;19.90;37.90;;;;;;5073677;28;20029;-65
2021/04/11 06:49:55;;;;;;;5.40;2.80;;;19.90;38.00;;;;;;5073559;28;20384;-65
2021/04/11 06:52:46;;;;;;;4.85;2.92;;;19.90;37.90;;;;;;5073195;28;20021;-66
2021/04/11 06:55:31;;;;;;;6.50;3.10;;;19.90;37.90;;;;;;5073624;28;20047;-65
2021/04/11 06:58:04;;;;;;;5.88;3.13;;;19.90;37.90;;;;;;5073761;28;20105;-65
2021/04/11 07:01:08;;;;;;;5.57;2.70;;;19.90;37.90;;;;;;5073809;28;20038;-65
2021/04/11 07:04:07;;;;;;;4.85;2.65;;;19.90;37.90;;;;;;5073223;28;20036;-65
2021/04/11 07:07:07;;;;;;;4.88;2.90;;;19.90;37.90;;;;;;5073278;28;20055;-66
2021/04/11 07:09:46;;;;;;;6.00;2.75;;;19.90;37.90;;;;;;5073374;28;20025;-65
2021/04/11 07:12:49;;;;;;;4.90;2.60;;;19.90;37.90;;;;;;5075932;28;20021;-65
2021/04/11 07:15:47;;;;;;;5.18;2.78;;;19.90;37.90;;;;;;5075521;28;20527;-65
2021/04/11 07:18:42;;;;;;;5.53;2.53;;;19.90;37.80;;;;;;5071745;28;20392;-66
2021/04/11 07:21:35;;;;;;;5.20;2.50;;;20.00;37.80;;;;;;5073135;28;20044;-65
2021/04/11 07:24:26;;;;;;;5.13;2.72;;;19.90;37.90;;;;;;5073285;28;20033;-66
2021/04/11 07:27:10;;;;;;;4.82;2.63;;;19.90;37.90;;;;;;5073139;28;20021;-65
2021/04/11 07:29:57;;;;;;;4.95;2.50;;;20.00;37.80;;;;;;5073049;28;20031;-66
2021/04/11 07:32:32;;;;;;;4.38;2.45;;;20.00;37.80;;;;;;5073124;28;20090;-66
2021/04/11 07:35:13;;;;;;;6.15;2.83;;;20.00;37.80;;;;;;5072889;28;20082;-66
2021/04/11 07:38:13;;;;;;;4.50;2.30;;;20.00;37.80;;;;;;5071739;28;20036;-67
2021/04/11 07:40:59;;;;;;;4.30;2.45;;;19.90;37.80;;;;;;5072850;28;20035;-66
2021/04/11 07:43:29;;;;;;;5.60;2.65;;;19.90;37.80;;;;;;5073109;28;20579;-66
2021/04/11 07:46:19;;;;;;;4.90;2.55;;;20.00;37.80;;;;;;5076806;28;20438;-65
2021/04/11 07:49:11;;;;;;;4.68;2.50;;;20.00;37.80;;;;;;5076969;28;20025;-67
2021/04/11 07:51:56;;;;;;;4.57;2.40;;;20.00;37.80;;;;;;5076785;28;20502;-66
2021/04/11 07:54:32;;;;;;;4.93;2.22;;;20.00;37.80;;;;;;5076549;28;20484;-66
2021/04/11 07:57:22;;;;;;;4.00;2.20;;;20.00;37.70;;;;;;5076661;28;20119;-66
2021/04/11 08:00:09;;;;;;;4.97;2.28;;;19.90;37.70;;;;;;5076514;28;20194;-66
2021/04/11 08:02:38;;;;;;;5.35;2.50;;;20.00;37.70;;;;;;5076796;28;20492;-66
2021/04/11 08:05:31;;;;;;;4.65;2.33;;;20.00;37.70;;;;;;5076328;28;20035;-66
2021/04/11 08:08:27;;;;;;;3.70;2.20;;;20.00;37.70;;;;;;5076226;28;20024;-65
2021/04/11 08:10:55;;;;;;;4.90;2.28;;;20.00;37.70;;;;;;5076847;28;20043;-65
2021/04/11 08:13:30;;;;;;;4.68;2.40;;;20.00;37.70;;;;;;5074964;28;20048;-65
2021/04/11 08:16:34;;;;;;;4.15;1.95;;;20.00;37.70;;;;;;5076289;28;20119;-65
2021/04/11 08:19:32;;;;;;;3.78;2.08;;;20.00;37.70;;;;;;5060284;28;20530;-65
2021/04/11 08:22:22;;;;;;;4.20;2.00;;;20.00;37.70;;;;;;5075695;28;20548;-65
2021/04/11 08:25:09;;;;;;;3.83;1.95;;;20.00;37.70;;;;;;5074881;28;20036;-65
2021/04/11 08:27:56;;;;;;;5.40;2.50;;;20.00;37.70;;;;;;5076644;28;20032;-65
2021/04/11 08:30:46;;;;;;;4.30;2.22;;;20.00;37.70;;;;;;5075957;28;20066;-65
2021/04/11 08:33:14;;;;;;;4.07;1.95;;;20.00;37.70;;;;;;5079781;28;20096;-65
2021/04/11 08:36:04;;;;;;;4.68;2.38;;;20.00;37.60;;;;;;5077514;28;20480;-64
2021/04/11 08:38:33;;;;;;;4.03;2.08;;;20.00;37.70;;;;;;5076142;28;20044;-65
2021/04/11 08:41:20;;;;;;;4.57;1.88;;;20.00;37.70;;;;;;5075910;28;20056;-65
2021/04/11 08:44:09;;;;;;;4.68;2.13;;;20.00;37.60;;;;;;5075806;28;20437;-65
2021/04/11 08:46:54;;;;;;;4.28;2.17;;;20.00;37.60;;;;;;5075541;28;20107;-65
2021/04/11 08:49:35;;;;;;;4.50;2.10;;;20.00;37.60;;;;;;5075516;28;20028;-65
2021/04/11 08:52:32;;;;;;;4.22;2.42;;;20.00;37.60;;;;;;5075462;28;20039;-65
2021/04/11 08:55:26;;;;;;;3.95;1.98;;;20.00;37.50;;;;;;5075337;28;20028;-65
2021/04/11 08:58:11;;;;;;;3.58;1.90;;;20.00;37.60;;;;;;5075970;28;20029;-66
2021/04/11 09:00:55;;;;;;;4.38;1.95;;;20.00;37.60;;;;;;5075539;28;20016;-65
2021/04/11 09:03:41;;;;;;;4.15;2.15;;;20.00;37.60;;;;;;5075427;28;20027;-65
2021/04/11 09:06:16;;;;;;;3.53;1.80;;;20.00;37.50;;;;;;5053789;28;20038;-66
2021/04/11 09:08:51;;;;;;;3.70;1.83;;;20.00;37.60;;;;;;5074941;28;20484;-65
2021/04/11 09:11:38;;;;;;;4.43;2.08;;;20.00;37.60;;;;;;5075419;28;20491;-65
2021/04/11 09:14:28;;;;;;;2.80;1.63;;;20.00;37.60;;;;;;5074888;28;20021;-66
2021/04/11 09:17:26;;;;;;;4.22;2.00;;;20.00;37.50;;;;;;5075065;28;20028;-64
2021/04/11 09:20:03;;;;;;;4.53;2.45;;;20.00;37.60;;;;;;5074859;28;20071;-65
2021/04/11 09:22:53;;;;;;;4.28;2.08;;;20.00;37.50;;;;;;5074639;28;20049;-65
2021/04/11 09:25:22;;;;;;;3.40;1.85;;;20.00;37.50;;;;;;5074680;28;20108;-65
2021/04/11 09:28:24;;;;;;;4.63;2.15;;;20.00;37.50;;;;;;5074703;28;20031;-64
2021/04/11 09:31:21;;;;;;;3.50;1.80;;;20.00;37.40;;;;;;5074641;28;20028;-65
2021/04/11 09:34:01;;;;;;;3.55;1.65;;;20.00;37.50;;;;;;5074915;28;20029;-65
2021/04/11 09:36:46;;;;;;;2.78;1.60;;;20.00;37.40;;;;;;5074388;28;20032;-65
2021/04/11 09:39:23;;;;;;;4.28;2.03;;;20.00;37.40;;;;;;5074407;28;20349;-66
2021/04/11 09:42:09;;;;;;;3.38;1.67;;;20.10;37.40;;;;;;5074173;28;20033;-65
2021/04/11 09:44:53;;;;;;;4.30;2.00;;;20.00;37.40;;;;;;5074347;28;20028;-66
2021/04/11 09:47:48;;;;;;;3.58;1.65;;;20.10;37.40;;;;;;5074928;28;20385;-65
2021/04/11 09:50:29;;;;;;;;;;;20.00;37.40;;;;;;5079013;28;20031;-66
2021/04/11 09:53:15;;;;;;;3.38;1.77;;;20.00;37.30;;;;;;5081488;28;19905;-67
2021/04/11 09:56:12;;;;;;;3.25;1.60;;;20.00;37.30;;;;;;5081535;28;20032;-65
2021/04/11 09:58:50;;;;;;;3.25;1.73;;;20.10;37.40;;;;;;5081913;28;20044;-65
2021/04/11 10:01:35;;;;;;;3.13;1.60;;;20.10;37.30;;;;;;5080654;28;20066;-66
2021/04/11 10:04:06;;;;;;;3.65;1.88;;;20.10;37.30;;;;;;5078015;28;20100;-65
2021/04/11 10:07:11;;;;;;;3.08;1.67;;;20.00;37.30;;;;;;5074331;28;20024;-66
2021/04/11 10:09:56;;;;;;;;;;;20.10;37.30;;;;;;5074918;28;20020;-64
2021/04/11 10:12:57;;;;;;;4.10;1.70;;;20.10;37.30;;;;;;5073797;28;19987;-66
2021/04/11 10:15:36;;;;;;;3.67;1.50;;;20.10;37.30;;;;;;5074279;28;20047;-66
2021/04/11 10:18:17;;;;;;;3.20;1.63;;;20.00;37.30;;;;;;5073938;28;20020;-65
2021/04/11 10:20:57;;;;;;;4.45;1.80;;;20.00;37.40;;;;;;5073700;28;20036;-67
2021/04/11 10:23:48;;;;;;;2.95;1.50;;;20.10;37.30;;;;;;5073924;28;20028;-65
2021/04/11 10:26:22;;;;;;;2.30;1.40;;;20.10;37.20;;;;;;5073943;28;20020;-66
2021/04/11 10:28:54;;;;;;;;;;;20.10;37.20;;;;;;5074219;28;20464;-65
2021/04/11 10:31:38;;;;;;;3.33;1.75;;;20.10;37.20;;;;;;5074029;28;19904;-65
2021/04/11 10:34:10;;;;;;;3.85;1.60;;;20.10;37.20;;;;;;5073945;28;20138;-65
2021/04/11 10:36:45;;;;;;;3.70;1.52;;;20.10;37.20;;;;;;5073648;28;20040;-65
2021/04/11 10:39:26;;;;;;;2.53;1.48;;;20.10;37.30;;;;;;5073741;28;20349;-65
2021/04/11 10:42:24;;;;;;;2.80;1.50;;;20.10;37.30;;;;;;5073775;28;20066;-65
2021/04/11 10:44:58;;;;;;;2.60;1.55;;;20.10;37.30;;;;;;5073317;28;20056;-65
2021/04/11 10:47:36;;;;;;;3.22;1.38;;;20.00;37.30;;;;;;5073527;28;20020;-65
2021/04/11 10:50:33;;;;;;;3.83;1.73;;;20.10;37.30;;;;;;5073337;28;20032;-65
2021/04/11 10:53:21;;;;;;;2.85;1.40;;;20.00;37.20;;;;;;5072599;28;20103;-66
2021/04/11 10:56:12;;;;;;;3.10;1.30;;;20.10;37.20;;;;;;5073404;28;20028;-66
2021/04/11 10:58:53;;;;;;;2.47;1.50;;;20.10;37.20;;;;;;5073303;28;20013;-65
2021/04/11 11:01:46;;;;;;;2.63;1.35;;;20.10;37.20;;;;;;5073291;28;20017;-66
2021/04/11 11:04:55;;;;;;;1.92;1.20;;;20.10;37.20;;;;;;5073550;28;20028;-66
2021/04/11 11:07:58;;;;;;;3.15;1.33;;;20.10;37.20;;;;;;5073299;28;20078;-65
2021/04/11 11:10:45;;;;;;;3.42;1.63;;;20.10;37.10;;;;;;5073271;28;20082;-64
2021/04/11 11:13:40;;;;;;;2.53;1.35;;;20.10;37.20;;;;;;5072949;28;20379;-64
2021/04/11 11:16:17;;;;;;;;;;;20.10;37.20;;;;;;5073554;28;20036;-64
2021/04/11 11:19:03;;;;;;;2.22;1.17;;;20.10;37.20;;;;;;5073393;28;19904;-64
2021/04/11 11:22:04;;;;;;;3.15;1.52;;;20.10;37.20;;;;;;5076839;28;20046;-65
2021/04/11 11:24:49;;;;;;;3.03;1.50;;;20.00;37.20;;;;;;5077301;28;20024;-65
2021/04/11 11:27:39;;;;;;;2.55;1.30;;;20.10;37.20;;;;;;5077221;28;20036;-65
2021/04/11 11:30:20;;;;;;;3.40;1.52;;;20.10;37.20;;;;;;5077539;28;20028;-65
2021/04/11 11:33:04;;;;;;;2.83;1.40;;;20.10;37.10;;;;;;5081502;28;20028;-65
2021/04/11 11:35:30;;;;;;;2.42;1.30;;;20.10;37.10;;;;;;5077116;28;20029;-65
2021/04/11 11:38:06;;;;;;;2.60;1.17;;;20.10;37.10;;;;;;5077183;28;20039;-65
2021/04/11 11:41:01;;;;;;;2.60;1.30;;;20.10;37.10;;;;;;5077279;28;20071;-65
2021/04/11 11:43:40;;;;;;;2.80;1.23;;;20.10;37.10;;;;;;5077073;28;20361;-66
2021/04/11 11:46:42;;;;;;;2.13;1.17;;;20.10;37.10;;;;;;5077059;28;20059;-66
2021/04/11 11:49:23;;;;;;;2.22;1.23;;;20.10;37.10;;;;;;5076766;28;20426;-66
2021/04/11 11:52:02;;;;;;;2.75;1.30;;;20.10;37.00;;;;;;5076984;28;20055;-65
2021/04/11 11:54:39;;;;;;;2.35;1.30;;;20.10;37.10;;;;;;5076550;28;20059;-64
2021/04/11 11:57:12;;;;;;;3.25;1.30;;;20.10;37.10;;;;;;5076898;28;20063;-65
2021/04/11 11:59:43;;;;;;;3.00;1.40;;;20.10;37.00;;;;;;5076678;28;20024;-65
2021/04/11 12:02:32;;;;;;;2.88;1.30;;;20.10;37.10;;;;;;5076832;28;20031;-65
2021/04/11 12:05:37;;;;;;;2.67;1.40;;;20.10;37.10;;;;;;5076784;28;20024;-65
2021/04/11 12:08:17;;;;;;;2.67;1.33;;;20.10;37.00;;;;;;5059759;28;20044;-65
2021/04/11 12:10:57;;;;;;;1.80;1.00;;;20.10;37.00;;;;;;5076284;28;20028;-66
2021/04/11 12:13:47;;;;;;;3.40;1.30;;;20.10;37.00;;;;;;5076260;28;20028;-66
2021/04/11 12:16:26;;;;;;;2.53;1.23;;;20.10;37.00;;;;;;5076211;28;20036;-66
2021/04/11 12:19:15;;;;;;;2.67;1.30;;;20.10;37.00;;;;;;5076350;28;20055;-67
2021/04/11 12:22:02;;;;;;;2.33;1.20;;;20.10;37.00;;;;;;5076149;28;20467;-65
2021/04/11 12:24:33;;;;;;;2.30;1.30;;;20.10;37.00;;;;;;5076259;28;20524;-65
2021/04/11 12:27:02;;;;;;;2.63;1.25;;;20.10;37.00;;;;;;5076323;28;20120;-65
2021/04/11 12:29:36;;;;;;;3.13;1.35;;;20.10;37.00;;;;;;5076021;28;20108;-66
2021/04/11 12:32:27;;;;;;;2.53;1.20;;;20.10;37.00;;;;;;5076251;28;20031;-66
2021/04/11 12:35:13;;;;;;;2.58;1.17;;;20.10;37.00;;;;;;5076078;28;20028;-66
2021/04/11 12:37:57;;;;;;;1.80;0.93;;;20.10;37.00;;;;;;5076576;28;20029;-67
2021/04/11 12:40:40;;;;;;;2.72;1.10;;;20.10;37.00;;;;;;5076001;28;20035;-66
2021/04/11 12:43:18;;;;;;;2.13;0.90;;;20.10;37.00;;;;;;5074256;28;20457;-65
2021/04/11 12:46:10;;;;;;;2.08;1.10;;;20.10;37.00;;;;;;5075420;28;20021;-66
2021/04/11 12:49:26;;;;;;;1.88;1.13;;;20.10;37.00;;;;;;5075555;28;20052;-67
2021/04/11 12:52:06;;;;;;;2.60;1.35;;;20.10;37.00;;;;;;5058234;28;20091;-66
2021/04/11 12:54:35;;;;;;;2.92;1.13;;;20.10;37.00;;;;;;5081863;28;20039;-66
2021/04/11 12:57:09;;;;;;;2.60;1.17;;;20.10;37.00;;;;;;5075766;28;20024;-66
2021/04/11 12:59:57;;;;;;;2.60;1.20;;;20.10;37.00;;;;;;5075724;28;20495;-66
2021/04/11 13:02:51;;;;;;;2.40;1.20;;;20.10;36.90;;;;;;5075420;28;20099;-66
2021/04/11 13:05:46;;;;;;;1.77;1.00;;;20.10;36.90;;;;;;5075369;28;20021;-66
2021/04/11 13:08:22;;;;;;;2.60;1.30;;;20.10;36.90;;;;;;5075378;28;20276;-66
2021/04/11 13:11:05;;;;;;;2.53;1.13;;;20.20;36.80;;;;;;5075229;28;20028;-65
2021/04/11 13:13:42;;;;;;;3.03;1.20;;;20.10;36.80;;;;;;5075437;28;20492;-65
2021/04/11 13:16:19;;;;;;;2.65;1.10;;;20.20;36.80;;;;;;5075387;28;20063;-66
2021/04/11 13:18:58;;;;;;;2.30;1.17;;;20.20;36.80;;;;;;5075407;28;20039;-66
2021/04/11 13:21:29;;;;;;;2.03;1.05;;;20.20;36.70;;;;;;5074993;28;20404;-65
2021/04/11 13:24:18;;;;;;;3.17;1.40;;;20.20;36.80;;;;;;5074992;28;20021;-65
2021/04/11 13:26:47;;;;;;;2.10;1.10;;;20.10;36.80;;;;;;5075258;28;20028;-66
2021/04/11 13:29:26;;;;;;;2.13;1.10;;;20.20;36.80;;;;;;5074814;28;20468;-66
2021/04/11 13:32:17;;;;;;;2.75;1.33;;;20.10;36.90;;;;;;5074821;28;20029;-66
2021/04/11 13:35:02;;;;;;;3.08;1.45;;;20.10;36.80;;;;;;5074935;28;20032;-67
2021/04/11 13:37:30;;;;;;;2.85;1.20;;;20.10;36.80;;;;;;5075685;28;20033;-67
2021/04/11 13:40:05;;;;;;;2.28;1.00;;;20.10;36.80;;;;;;5076207;28;20025;-67
2021/04/11 13:42:45;;;;;;;1.98;0.90;;;20.10;36.80;;;;;;5075427;28;20056;-66
2021/04/11 13:45:32;;;;;;;2.20;1.08;;;20.10;36.80;;;;;;5074565;28;20178;-65
2021/04/11 13:48:16;;;;;;;2.55;1.10;;;20.10;36.80;;;;;;5073224;28;20021;-65
2021/04/11 13:51:15;;;;;;;2.80;1.27;;;20.10;36.70;;;;;;5074400;28;20024;-67